Terminal Aerodrome Forecast
Issued by NWS

Home | Current Version | Previous Version | Graphics & Text | Print | Product List | Glossary On
Versions: 1 2 3 4 5 6 7 8 9 10 11 12 13 14 15
000
FTUS43 KTOP 231300 AAA
TAFFOE
TAF AMD
KFOE 231359Z 2314/2412 16008KT 5SM -DZ BR OVC009
     FM231700 28010KT 3SM -SHRA BR VCTS BKN006 OVC015CB
     FM232100 32020G29KT 5SM -RASN BR OVC020
     FM240600 32018G24KT P6SM BKN040=

USA.gov is the U.S. government's official web portal to all federal, state and local government web resources and services.